createdAt,value
2023-04-13T00:02:00.678Z,2.4
2023-04-13T00:03:00.998Z,2.9
2023-04-13T00:04:01.060Z,2.9
2023-04-13T00:05:00.584Z,2.9
2023-04-13T00:06:00.527Z,2.9
2023-04-13T00:07:00.514Z,2.9
2023-04-13T00:08:00.528Z,2.9
2023-04-13T00:09:00.536Z,2.9
2023-04-13T00:10:00.508Z,2.9
2023-04-13T00:11:00.513Z,2.9
2023-04-13T00:12:00.520Z,2.9
2023-04-13T00:13:01.559Z,2.6
2023-04-13T00:14:00.703Z,2.6
2023-04-13T00:15:00.641Z,2.6
2023-04-13T00:16:00.508Z,2.6
2023-04-13T00:17:00.653Z,2.6
2023-04-13T00:18:00.609Z,2.6
2023-04-13T00:19:00.521Z,2.6
2023-04-13T00:20:00.792Z,2.6
2023-04-13T00:21:00.519Z,2.6
2023-04-13T00:22:00.503Z,2.6
2023-04-13T00:23:00.533Z,3.0
2023-04-13T00:24:00.827Z,3.0
2023-04-13T00:25:00.507Z,3.0
2023-04-13T00:26:00.525Z,3.0
2023-04-13T00:27:00.495Z,3.0
2023-04-13T00:28:00.503Z,3.0
2023-04-13T00:29:00.510Z,3.0
2023-04-13T00:30:00.507Z,3.0
2023-04-13T00:31:00.520Z,3.0
2023-04-13T00:32:00.524Z,3.0
2023-04-13T00:33:00.918Z,2.4
2023-04-13T00:34:00.516Z,2.4
2023-04-13T00:35:00.801Z,2.4
2023-04-13T00:36:00.534Z,2.4
2023-04-13T00:37:00.525Z,2.4
2023-04-13T00:38:00.614Z,2.4
2023-04-13T00:39:00.541Z,2.4
2023-04-13T00:40:00.523Z,2.4
2023-04-13T00:41:00.506Z,2.4
2023-04-13T00:42:00.561Z,2.4
2023-04-13T00:43:00.540Z,1.7
2023-04-13T00:44:00.633Z,1.7
2023-04-13T00:45:00.652Z,1.7
2023-04-13T00:46:00.818Z,1.7
2023-04-13T00:47:02.082Z,1.7
2023-04-13T00:48:00.648Z,1.7
2023-04-13T00:49:00.551Z,1.7
2023-04-13T00:50:01.364Z,1.7
2023-04-13T00:51:01.085Z,1.7
2023-04-13T00:52:02.001Z,1.7
2023-04-13T00:53:01.156Z,3.1
2023-04-13T00:54:00.587Z,3.1
2023-04-13T00:55:00.644Z,3.1
2023-04-13T00:56:00.856Z,3.1
2023-04-13T00:57:00.658Z,3.1
2023-04-13T00:58:00.544Z,3.1
2023-04-13T00:59:00.594Z,3.1
2023-04-13T01:00:02.469Z,3.1
2023-04-13T01:01:01.152Z,3.1
2023-04-13T01:02:00.609Z,3.1
2023-04-13T01:03:00.645Z,3.1
2023-04-13T01:04:00.766Z,3.1
2023-04-13T01:05:00.573Z,3.1
2023-04-13T01:06:00.492Z,3.1
2023-04-13T01:07:01.501Z,3.1
2023-04-13T01:08:07.246Z,3.1
2023-04-13T01:09:05.517Z,3.1
2023-04-13T01:10:05.898Z,3.1
2023-04-13T01:11:01.595Z,3.1
2023-04-13T01:12:10.406Z,3.1
2023-04-13T01:13:00.541Z,2.4
2023-04-13T01:14:04.461Z,2.4
2023-04-13T01:15:04.948Z,2.4
2023-04-13T01:16:03.369Z,2.4
2023-04-13T01:17:02.847Z,2.4
2023-04-13T01:18:01.001Z,2.4
2023-04-13T01:19:02.524Z,2.4
2023-04-13T01:20:02.876Z,2.4
2023-04-13T01:21:00.856Z,2.4
2023-04-13T01:22:01.322Z,2.4
2023-04-13T01:23:03.374Z,1.2
2023-04-13T01:24:10.373Z,1.2
2023-04-13T01:25:10.377Z,1.2
2023-04-13T01:26:01.578Z,1.2
2023-04-13T01:27:03.852Z,1.2
2023-04-13T01:28:02.875Z,1.2
2023-04-13T01:29:01.445Z,1.2
2023-04-13T01:30:01.083Z,1.2
2023-04-13T01:31:01.354Z,1.2
2023-04-13T01:32:01.257Z,1.2
2023-04-13T01:33:00.809Z,1.1
2023-04-13T01:34:00.772Z,1.1
2023-04-13T01:35:00.634Z,1.1
2023-04-13T01:36:01.054Z,1.1
2023-04-13T01:37:00.533Z,1.1
2023-04-13T01:38:00.504Z,1.1
2023-04-13T01:39:00.487Z,1.1
2023-04-13T01:40:00.509Z,1.1
2023-04-13T01:41:00.599Z,1.1
2023-04-13T01:42:00.520Z,1.1
2023-04-13T01:43:00.539Z,0.8
2023-04-13T01:44:00.841Z,0.8
2023-04-13T01:45:00.668Z,0.8
2023-04-13T01:46:03.550Z,0.8
2023-04-13T01:47:10.389Z,0.8
2023-04-13T01:48:10.424Z,0.8
2023-04-13T01:49:01.954Z,0.8
2023-04-13T01:50:07.820Z,0.8
2023-04-13T01:51:04.686Z,0.8
2023-04-13T01:52:00.929Z,0.8
2023-04-13T01:53:03.130Z,0.6
2023-04-13T01:54:03.330Z,0.6
2023-04-13T01:55:01.228Z,0.6
2023-04-13T01:56:01.900Z,0.6
2023-04-13T01:57:01.020Z,0.6
2023-04-13T01:58:00.798Z,0.6
2023-04-13T01:59:00.768Z,0.6
2023-04-13T02:00:00.502Z,0.6
2023-04-13T02:01:00.769Z,0.6
2023-04-13T02:02:00.586Z,0.6
2023-04-13T02:03:04.778Z,0.6
2023-04-13T02:04:01.856Z,0.6
2023-04-13T02:05:00.525Z,0.6
2023-04-13T02:06:01.043Z,0.6
2023-04-13T02:07:00.594Z,0.6
2023-04-13T02:08:00.519Z,0.6
2023-04-13T02:09:00.516Z,0.6
2023-04-13T02:10:00.506Z,0.6
2023-04-13T02:11:00.484Z,0.6
2023-04-13T02:12:00.470Z,0.6
2023-04-13T02:13:00.807Z,0.6
2023-04-13T02:14:00.721Z,0.6
2023-04-13T02:15:00.564Z,0.6
2023-04-13T02:16:00.923Z,0.6
2023-04-13T02:17:00.518Z,0.6
2023-04-13T02:18:00.713Z,0.6
2023-04-13T02:19:00.559Z,0.6
2023-04-13T02:20:01.560Z,0.6
2023-04-13T02:21:01.771Z,0.6
2023-04-13T02:22:00.532Z,0.6
2023-04-13T02:23:00.512Z,0.5
2023-04-13T02:24:00.833Z,0.5
2023-04-13T02:25:00.590Z,0.5
2023-04-13T02:26:00.661Z,0.5
2023-04-13T02:27:00.538Z,0.5
2023-04-13T02:28:00.586Z,0.5
2023-04-13T02:29:00.508Z,0.5
2023-04-13T02:30:01.012Z,0.5
2023-04-13T02:31:00.599Z,0.5
2023-04-13T02:32:00.551Z,0.5
2023-04-13T02:33:00.551Z,0.8
2023-04-13T02:34:00.866Z,0.8
2023-04-13T02:35:00.730Z,0.8
2023-04-13T02:36:01.558Z,0.8
2023-04-13T02:37:00.867Z,0.8
2023-04-13T02:38:00.516Z,0.8
2023-04-13T02:39:00.537Z,0.8
2023-04-13T02:40:00.505Z,0.8
2023-04-13T02:41:00.594Z,0.8
2023-04-13T02:42:00.576Z,0.8
2023-04-13T02:43:00.694Z,1.0
2023-04-13T02:44:00.770Z,1.0
2023-04-13T02:45:00.538Z,1.0
2023-04-13T02:46:00.550Z,1.0
2023-04-13T02:47:00.709Z,1.0
2023-04-13T02:48:00.532Z,1.0
2023-04-13T02:49:00.525Z,1.0
2023-04-13T02:50:00.613Z,1.0
2023-04-13T02:51:00.533Z,1.0
2023-04-13T02:52:00.547Z,1.0
2023-04-13T02:53:00.516Z,1.5
2023-04-13T02:54:01.233Z,1.5
2023-04-13T02:55:00.563Z,1.5
2023-04-13T02:56:00.564Z,1.5
2023-04-13T02:57:00.519Z,1.5
2023-04-13T02:58:00.593Z,1.5
2023-04-13T02:59:00.516Z,1.5
2023-04-13T03:00:00.510Z,1.5
2023-04-13T03:01:00.577Z,1.5
2023-04-13T03:02:00.661Z,1.5
2023-04-13T03:03:00.899Z,1.2
2023-04-13T03:04:01.096Z,1.2
2023-04-13T03:05:00.783Z,1.2
2023-04-13T03:06:00.524Z,1.2
2023-04-13T03:07:00.507Z,1.2
2023-04-13T03:08:00.493Z,1.2
2023-04-13T03:09:00.583Z,1.2
2023-04-13T03:10:01.366Z,1.2
2023-04-13T03:11:00.503Z,1.2
2023-04-13T03:12:00.543Z,1.2
2023-04-13T03:13:00.514Z,0.9
2023-04-13T03:14:00.762Z,0.9
2023-04-13T03:15:00.539Z,0.9
2023-04-13T03:16:00.740Z,0.9
2023-04-13T03:17:00.562Z,0.9
2023-04-13T03:18:00.654Z,0.9
2023-04-13T03:19:00.500Z,0.9
2023-04-13T03:20:00.607Z,0.9
2023-04-13T03:21:00.513Z,0.9
2023-04-13T03:22:00.515Z,0.9
2023-04-13T03:23:00.529Z,0.9
2023-04-13T03:24:00.683Z,0.9
2023-04-13T03:25:00.504Z,0.9
2023-04-13T03:26:00.517Z,0.9
2023-04-13T03:27:00.502Z,0.9
2023-04-13T03:28:00.566Z,0.9
2023-04-13T03:29:00.530Z,0.9
2023-04-13T03:30:00.812Z,0.9
2023-04-13T03:31:00.583Z,0.9
2023-04-13T03:32:00.505Z,0.9
2023-04-13T03:33:00.595Z,0.6
2023-04-13T03:34:00.919Z,0.6
2023-04-13T03:35:00.528Z,0.6
2023-04-13T03:36:00.554Z,0.6
2023-04-13T03:37:00.490Z,0.6
2023-04-13T03:38:00.532Z,0.6
2023-04-13T03:39:00.490Z,0.6
2023-04-13T03:40:00.524Z,0.6
2023-04-13T03:41:00.545Z,0.6
2023-04-13T03:42:00.605Z,0.6
2023-04-13T03:43:00.537Z,1.0
2023-04-13T03:44:00.842Z,1.0
2023-04-13T03:45:00.609Z,1.0
2023-04-13T03:46:00.655Z,1.0
2023-04-13T03:47:00.539Z,1.0
2023-04-13T03:48:00.562Z,1.0
2023-04-13T03:49:00.552Z,1.0
2023-04-13T03:50:00.526Z,1.0
2023-04-13T03:51:00.537Z,1.0
2023-04-13T03:52:00.531Z,1.0
2023-04-13T03:53:00.680Z,0.6
2023-04-13T03:54:01.005Z,0.6
2023-04-13T03:55:00.627Z,0.6
2023-04-13T03:56:00.538Z,0.6
2023-04-13T03:57:00.776Z,0.6
2023-04-13T03:58:00.629Z,0.6
2023-04-13T03:59:00.560Z,0.6
2023-04-13T04:00:00.616Z,0.6
2023-04-13T04:01:00.485Z,0.6
2023-04-13T04:02:00.581Z,0.6
2023-04-13T04:03:00.666Z,0.9
2023-04-13T04:04:01.077Z,0.9
2023-04-13T04:05:00.546Z,0.9
2023-04-13T04:06:00.502Z,0.9
2023-04-13T04:07:00.506Z,0.9
2023-04-13T04:08:00.536Z,0.9
2023-04-13T04:09:00.571Z,0.9
2023-04-13T04:10:00.552Z,0.9
2023-04-13T04:11:00.529Z,0.9
2023-04-13T04:12:00.532Z,0.9
2023-04-13T04:13:00.508Z,0.8
2023-04-13T04:14:00.926Z,0.8
2023-04-13T04:15:00.630Z,0.8
2023-04-13T04:16:00.548Z,0.8
2023-04-13T04:17:00.494Z,0.8
2023-04-13T04:18:00.655Z,0.8
2023-04-13T04:19:00.500Z,0.8
2023-04-13T04:20:00.539Z,0.8
2023-04-13T04:21:00.516Z,0.8
2023-04-13T04:22:01.169Z,0.8
2023-04-13T04:23:00.509Z,0.8
2023-04-13T04:24:01.239Z,0.8
2023-04-13T04:25:00.536Z,0.8
2023-04-13T04:26:00.595Z,0.8
2023-04-13T04:27:00.569Z,0.8
2023-04-13T04:28:00.557Z,0.8
2023-04-13T04:29:00.539Z,0.8
2023-04-13T04:30:00.488Z,0.8
2023-04-13T04:31:00.512Z,0.8
2023-04-13T04:32:01.236Z,0.8
2023-04-13T04:33:00.536Z,0.8
2023-04-13T04:34:00.865Z,0.8
2023-04-13T04:35:00.510Z,0.8
2023-04-13T04:36:00.531Z,0.8
2023-04-13T04:37:03.455Z,0.8
2023-04-13T04:38:01.081Z,0.8
2023-04-13T04:39:00.544Z,0.8
2023-04-13T04:40:00.536Z,0.8
2023-04-13T04:41:00.508Z,0.8
2023-04-13T04:42:00.497Z,0.8
2023-04-13T04:43:00.930Z,0.9
2023-04-13T04:44:00.718Z,0.9
2023-04-13T04:45:00.508Z,0.9
2023-04-13T04:46:00.617Z,0.9
2023-04-13T04:47:00.483Z,0.9
2023-04-13T04:48:00.650Z,0.9
2023-04-13T04:49:00.676Z,0.9
2023-04-13T04:50:00.496Z,0.9
2023-04-13T04:51:00.527Z,0.9
2023-04-13T04:52:00.479Z,0.9
2023-04-13T04:53:00.500Z,0.8
2023-04-13T04:54:00.949Z,0.8
2023-04-13T04:55:00.524Z,0.8
2023-04-13T04:56:00.523Z,0.8
2023-04-13T04:57:00.544Z,0.8
2023-04-13T04:58:00.556Z,0.8
2023-04-13T04:59:00.978Z,0.8
2023-04-13T05:00:01.317Z,0.8
2023-04-13T05:01:00.537Z,0.8
2023-04-13T05:02:00.593Z,0.8
2023-04-13T05:03:00.650Z,1.1
2023-04-13T05:04:00.839Z,1.1
2023-04-13T05:05:00.537Z,1.1
2023-04-13T05:06:00.513Z,1.1
2023-04-13T05:07:00.566Z,1.1
2023-04-13T05:08:00.532Z,1.1
2023-04-13T05:09:02.248Z,1.1
2023-04-13T05:10:00.505Z,1.1
2023-04-13T05:11:00.537Z,1.1
2023-04-13T05:12:00.495Z,1.1
2023-04-13T05:13:00.513Z,1.1
2023-04-13T05:14:01.120Z,1.1
2023-04-13T05:15:00.667Z,1.1
2023-04-13T05:16:00.632Z,1.1
2023-04-13T05:17:00.536Z,1.1
2023-04-13T05:18:00.551Z,1.1
2023-04-13T05:19:00.751Z,1.1
2023-04-13T05:20:01.121Z,1.1
2023-04-13T05:21:00.506Z,1.1
2023-04-13T05:22:00.520Z,1.1
2023-04-13T05:23:00.608Z,1.2
2023-04-13T05:24:00.517Z,1.2
2023-04-13T05:25:00.560Z,1.2
2023-04-13T05:26:00.549Z,1.2
2023-04-13T05:27:00.512Z,1.2
2023-04-13T05:28:00.539Z,1.2
2023-04-13T05:29:00.834Z,1.2
2023-04-13T05:30:00.544Z,1.2
2023-04-13T05:31:01.515Z,1.2
2023-04-13T05:32:01.171Z,1.2
2023-04-13T05:33:00.582Z,0.9
2023-04-13T05:34:00.609Z,0.9
2023-04-13T05:35:00.668Z,0.9
2023-04-13T05:36:00.852Z,0.9
2023-04-13T05:37:00.554Z,0.9
2023-04-13T05:38:00.504Z,0.9
2023-04-13T05:39:01.270Z,0.9
2023-04-13T05:40:00.720Z,0.9
2023-04-13T05:41:00.523Z,0.9
2023-04-13T05:42:00.755Z,0.9
2023-04-13T05:43:00.530Z,1.6
2023-04-13T05:44:00.515Z,1.6
2023-04-13T05:45:00.519Z,1.6
2023-04-13T05:46:00.571Z,1.6
2023-04-13T05:47:00.507Z,1.6
2023-04-13T05:48:00.570Z,1.6
2023-04-13T05:49:00.802Z,1.6
2023-04-13T05:50:00.509Z,1.6
2023-04-13T05:51:00.520Z,1.6
2023-04-13T05:52:00.500Z,1.6
2023-04-13T05:53:00.561Z,1.1
2023-04-13T05:54:00.968Z,1.1
2023-04-13T05:55:00.523Z,1.1
2023-04-13T05:56:00.500Z,1.1
2023-04-13T05:57:00.508Z,1.1
2023-04-13T05:58:00.521Z,1.1
2023-04-13T05:59:00.779Z,1.1
2023-04-13T06:00:00.557Z,1.1
2023-04-13T06:01:00.531Z,1.1
2023-04-13T06:02:00.588Z,1.1
2023-04-13T06:03:00.699Z,1.1
2023-04-13T06:04:00.865Z,1.1
2023-04-13T06:05:00.692Z,1.1
2023-04-13T06:06:00.569Z,1.1
2023-04-13T06:07:00.573Z,1.1
2023-04-13T06:08:00.552Z,1.1
2023-04-13T06:09:00.872Z,1.1
2023-04-13T06:10:00.840Z,1.1
2023-04-13T06:11:00.726Z,1.1
2023-04-13T06:12:00.518Z,1.1
2023-04-13T06:13:00.499Z,0.8
2023-04-13T06:14:00.514Z,0.8
2023-04-13T06:15:00.563Z,0.8
2023-04-13T06:16:00.705Z,0.8
2023-04-13T06:17:00.518Z,0.8
2023-04-13T06:18:00.534Z,0.8
2023-04-13T06:19:00.732Z,0.8
2023-04-13T06:20:00.793Z,0.8
2023-04-13T06:21:00.494Z,0.8
2023-04-13T06:22:00.489Z,0.8
2023-04-13T06:23:00.546Z,1.0
2023-04-13T06:24:00.521Z,1.0
2023-04-13T06:25:00.545Z,1.0
2023-04-13T06:26:00.730Z,1.0
2023-04-13T06:27:00.588Z,1.0
2023-04-13T06:28:01.116Z,1.0
2023-04-13T06:29:00.872Z,1.0
2023-04-13T06:30:00.507Z,1.0
2023-04-13T06:31:00.585Z,1.0
2023-04-13T06:32:00.532Z,1.0
2023-04-13T06:33:00.605Z,1.0
2023-04-13T06:34:00.485Z,1.0
2023-04-13T06:35:00.604Z,1.0
2023-04-13T06:36:01.068Z,1.0
2023-04-13T06:37:00.989Z,1.0
2023-04-13T06:38:00.774Z,1.0
2023-04-13T06:39:00.841Z,1.0
2023-04-13T06:40:00.936Z,1.0
2023-04-13T06:41:01.096Z,1.0
2023-04-13T06:42:00.500Z,1.0
2023-04-13T06:43:00.519Z,1.0
2023-04-13T06:44:00.491Z,1.1
2023-04-13T06:45:00.552Z,1.1
2023-04-13T06:46:00.708Z,1.1
2023-04-13T06:47:00.523Z,1.1
2023-04-13T06:48:00.709Z,1.1
2023-04-13T06:49:00.728Z,1.1
2023-04-13T06:50:02.496Z,1.1
2023-04-13T06:51:00.534Z,1.1
2023-04-13T06:52:00.517Z,1.1
2023-04-13T06:53:00.751Z,1.1
2023-04-13T06:54:00.514Z,1.0
2023-04-13T06:55:00.745Z,1.0
2023-04-13T06:56:00.493Z,1.0
2023-04-13T06:57:00.497Z,1.0
2023-04-13T06:58:00.469Z,1.0
2023-04-13T06:59:02.281Z,1.0
2023-04-13T07:00:00.510Z,1.0
2023-04-13T07:01:00.608Z,1.0
2023-04-13T07:02:00.705Z,1.0
2023-04-13T07:03:00.858Z,1.0
2023-04-13T07:04:00.560Z,1.1
2023-04-13T07:05:00.633Z,1.1
2023-04-13T07:06:00.499Z,1.1
2023-04-13T07:07:00.491Z,1.1
2023-04-13T07:08:00.531Z,1.1
2023-04-13T07:09:00.890Z,1.1
2023-04-13T07:10:00.856Z,1.1
2023-04-13T07:11:00.745Z,1.1
2023-04-13T07:12:04.113Z,1.1
2023-04-13T07:13:00.496Z,1.1
2023-04-13T07:14:00.508Z,15.9
2023-04-13T07:15:00.539Z,15.9
2023-04-13T07:16:00.564Z,15.9
2023-04-13T07:17:00.753Z,15.9
2023-04-13T07:18:00.580Z,15.9
2023-04-13T07:19:00.793Z,15.9
2023-04-13T07:20:00.497Z,15.9
2023-04-13T07:21:00.706Z,15.9
2023-04-13T07:22:01.142Z,15.9
2023-04-13T07:23:00.554Z,15.9
2023-04-13T07:24:00.565Z,7.4
2023-04-13T07:25:00.701Z,7.4
2023-04-13T07:26:00.516Z,7.4
2023-04-13T07:27:00.529Z,7.4
2023-04-13T07:28:00.605Z,7.4
2023-04-13T07:29:00.703Z,7.4
2023-04-13T07:30:00.504Z,7.4
2023-04-13T07:31:00.547Z,7.4
2023-04-13T07:32:01.633Z,7.4
2023-04-13T07:33:00.632Z,7.4
2023-04-13T07:34:00.505Z,2.3
2023-04-13T07:35:00.528Z,2.3
2023-04-13T07:36:00.506Z,2.3
2023-04-13T07:37:00.524Z,2.3
2023-04-13T07:38:00.512Z,2.3
2023-04-13T07:39:00.833Z,2.3
2023-04-13T07:40:00.605Z,2.3
2023-04-13T07:41:00.565Z,2.3
2023-04-13T07:42:00.687Z,2.3
2023-04-13T07:43:00.660Z,2.3
2023-04-13T07:44:01.010Z,1.2
2023-04-13T07:45:00.572Z,1.2
2023-04-13T07:46:06.902Z,1.2
2023-04-13T07:47:00.615Z,1.2
2023-04-13T07:48:00.618Z,1.2
2023-04-13T07:49:00.718Z,1.2
2023-04-13T07:50:00.559Z,1.2
2023-04-13T07:51:00.529Z,1.2
2023-04-13T07:52:00.529Z,1.2
2023-04-13T07:53:00.666Z,1.2
2023-04-13T07:54:01.009Z,1.4
2023-04-13T07:55:01.486Z,1.4
2023-04-13T07:56:00.506Z,1.4
2023-04-13T07:57:00.556Z,1.4
2023-04-13T07:58:00.537Z,1.4
2023-04-13T07:59:01.202Z,1.4
2023-04-13T08:00:02.858Z,1.4
2023-04-13T08:01:00.959Z,1.4
2023-04-13T08:02:00.559Z,1.4
2023-04-13T08:03:00.729Z,1.4
2023-04-13T08:04:00.737Z,1.0
2023-04-13T08:05:01.492Z,1.0
2023-04-13T08:06:00.505Z,1.0
2023-04-13T08:07:02.375Z,1.0
2023-04-13T08:08:00.508Z,1.0
2023-04-13T08:09:00.763Z,1.0
2023-04-13T08:10:00.543Z,1.0
2023-04-13T08:11:00.502Z,1.0
2023-04-13T08:12:01.155Z,1.0
2023-04-13T08:13:00.526Z,1.0
2023-04-13T08:14:00.526Z,1.1
2023-04-13T08:15:00.614Z,1.1
2023-04-13T08:16:00.601Z,1.1
2023-04-13T08:17:03.230Z,1.1
2023-04-13T08:18:00.599Z,1.1
2023-04-13T08:19:00.974Z,1.1
2023-04-13T08:20:00.539Z,1.1
2023-04-13T08:21:00.519Z,1.1
2023-04-13T08:22:00.564Z,1.1
2023-04-13T08:23:00.546Z,1.1
2023-04-13T08:24:00.558Z,0.9
2023-04-13T08:25:00.513Z,0.9
2023-04-13T08:26:00.561Z,0.9
2023-04-13T08:27:00.542Z,0.9
2023-04-13T08:28:00.661Z,0.9
2023-04-13T08:29:00.786Z,0.9
2023-04-13T08:30:00.523Z,0.9
2023-04-13T08:31:00.522Z,0.9
2023-04-13T08:32:00.586Z,0.9
2023-04-13T08:33:00.764Z,0.9
2023-04-13T08:34:00.506Z,1.2
2023-04-13T08:35:00.533Z,1.2
2023-04-13T08:36:00.508Z,1.2
2023-04-13T08:37:00.574Z,1.2
2023-04-13T08:38:01.638Z,1.2
2023-04-13T08:39:00.932Z,1.2
2023-04-13T08:40:00.858Z,1.2
2023-04-13T08:41:02.045Z,1.2
2023-04-13T08:42:00.502Z,1.2
2023-04-13T08:43:00.565Z,1.2
2023-04-13T08:44:00.762Z,1.3
2023-04-13T08:45:02.182Z,1.3
2023-04-13T08:46:02.294Z,1.3
2023-04-13T08:47:00.541Z,1.3
2023-04-13T08:48:00.772Z,1.3
2023-04-13T08:49:02.105Z,1.3
2023-04-13T08:50:00.960Z,1.3
2023-04-13T08:51:03.939Z,1.3
2023-04-13T08:52:03.678Z,1.3
2023-04-13T08:53:00.690Z,1.3
2023-04-13T08:54:00.504Z,1.0
2023-04-13T08:55:00.766Z,1.0
2023-04-13T08:56:00.712Z,1.0
2023-04-13T08:57:01.204Z,1.0
2023-04-13T08:58:02.073Z,1.0
2023-04-13T08:59:03.130Z,1.0
2023-04-13T09:00:00.558Z,1.0
2023-04-13T09:01:00.832Z,1.0
2023-04-13T09:02:01.186Z,1.0
2023-04-13T09:03:05.377Z,1.0
2023-04-13T09:04:04.026Z,0.9
2023-04-13T09:05:02.645Z,0.9
2023-04-13T09:06:03.740Z,0.9
2023-04-13T09:07:01.782Z,0.9
2023-04-13T09:08:00.888Z,0.9
2023-04-13T09:09:03.193Z,0.9
2023-04-13T09:10:01.145Z,0.9
2023-04-13T09:11:00.906Z,0.9
2023-04-13T09:12:00.507Z,0.9
2023-04-13T09:13:00.494Z,0.9
2023-04-13T09:14:00.920Z,1.0
2023-04-13T09:15:00.906Z,1.0
2023-04-13T09:16:00.510Z,1.0
2023-04-13T09:17:00.711Z,1.0
2023-04-13T09:18:08.898Z,1.0
2023-04-13T09:19:00.888Z,1.0
2023-04-13T09:20:10.405Z,1.0
2023-04-13T09:21:00.546Z,1.0
2023-04-13T09:22:10.397Z,1.0
2023-04-13T09:23:10.391Z,1.0
2023-04-13T09:24:00.804Z,1.3
2023-04-13T09:25:00.533Z,1.3
2023-04-13T09:26:07.886Z,1.3
2023-04-13T09:27:01.344Z,1.3
2023-04-13T09:28:00.542Z,1.3
2023-04-13T09:29:02.190Z,1.3
2023-04-13T09:30:00.525Z,1.3
2023-04-13T09:31:01.195Z,1.3
2023-04-13T09:32:00.659Z,1.3
2023-04-13T09:33:04.524Z,1.3
2023-04-13T09:34:00.693Z,1.0
2023-04-13T09:35:01.893Z,1.0
2023-04-13T09:36:08.300Z,1.0
2023-04-13T09:37:10.381Z,1.0
2023-04-13T09:38:00.560Z,1.0
2023-04-13T09:39:00.708Z,1.0
2023-04-13T09:40:08.440Z,1.0
2023-04-13T09:41:00.530Z,1.0
2023-04-13T09:42:08.373Z,1.0
2023-04-13T09:43:01.538Z,1.0
2023-04-13T09:44:02.403Z,1.1
2023-04-13T09:45:00.521Z,1.1
2023-04-13T09:46:00.623Z,1.1
2023-04-13T09:47:01.867Z,1.1
2023-04-13T09:48:00.975Z,1.1
2023-04-13T09:49:02.646Z,1.1
2023-04-13T09:50:01.506Z,1.1
2023-04-13T09:51:01.253Z,1.1
2023-04-13T09:52:00.534Z,1.1
2023-04-13T09:53:01.336Z,1.1
2023-04-13T09:54:00.591Z,0.7
2023-04-13T09:55:00.544Z,0.7
2023-04-13T09:56:00.521Z,0.7
2023-04-13T09:57:00.540Z,0.7
2023-04-13T09:58:10.387Z,0.7
2023-04-13T09:59:00.822Z,0.7
2023-04-13T10:00:00.538Z,0.7
2023-04-13T10:01:00.604Z,0.7
2023-04-13T10:02:02.682Z,0.7
2023-04-13T10:03:01.299Z,0.7
2023-04-13T10:04:02.877Z,1.4
2023-04-13T10:05:00.551Z,1.4
2023-04-13T10:06:00.877Z,1.4
2023-04-13T10:07:00.552Z,1.4
2023-04-13T10:08:00.610Z,1.4
2023-04-13T10:09:00.891Z,1.4
2023-04-13T10:10:00.530Z,1.4
2023-04-13T10:11:01.004Z,1.4
2023-04-13T10:12:00.719Z,1.4
2023-04-13T10:13:02.196Z,1.4
2023-04-13T10:14:00.923Z,1.3
2023-04-13T10:15:09.101Z,1.3
2023-04-13T10:16:03.586Z,1.3
2023-04-13T10:17:00.488Z,1.3
2023-04-13T10:18:11.300Z,1.3
2023-04-13T10:19:03.523Z,1.3
2023-04-13T10:20:02.143Z,1.3
2023-04-13T10:21:01.281Z,1.3
2023-04-13T10:22:03.161Z,1.3
2023-04-13T10:23:02.318Z,1.3
2023-04-13T10:24:02.253Z,0.7
2023-04-13T10:25:00.647Z,0.7
2023-04-13T10:26:00.868Z,0.7
2023-04-13T10:27:09.517Z,0.7
2023-04-13T10:28:00.773Z,0.7
2023-04-13T10:29:01.239Z,0.7
2023-04-13T10:30:10.434Z,0.7
2023-04-13T10:31:00.520Z,0.7
2023-04-13T10:32:00.643Z,0.7
2023-04-13T10:33:01.466Z,0.7
2023-04-13T10:34:00.894Z,1.1
2023-04-13T10:35:07.644Z,1.1
2023-04-13T10:36:00.582Z,1.1
2023-04-13T10:37:00.763Z,1.1
2023-04-13T10:38:00.515Z,1.1
2023-04-13T10:39:00.953Z,1.1
2023-04-13T10:40:03.088Z,1.1
2023-04-13T10:41:00.534Z,1.1
2023-04-13T10:42:00.527Z,1.1
2023-04-13T10:43:00.547Z,1.1
2023-04-13T10:44:01.480Z,0.8
2023-04-13T10:45:00.528Z,0.8
2023-04-13T10:46:08.612Z,0.8
2023-04-13T10:47:00.591Z,0.8
2023-04-13T10:48:00.798Z,0.8
2023-04-13T10:49:01.943Z,0.8
2023-04-13T10:50:00.527Z,0.8
2023-04-13T10:51:00.838Z,0.8
2023-04-13T10:52:00.494Z,0.8
2023-04-13T10:53:02.546Z,0.8
2023-04-13T10:54:03.905Z,1.1
2023-04-13T10:55:00.914Z,1.1
2023-04-13T10:56:00.540Z,1.1
2023-04-13T10:57:01.733Z,1.1
2023-04-13T10:58:01.268Z,1.1
2023-04-13T10:59:00.929Z,1.1
2023-04-13T11:00:00.531Z,1.1
2023-04-13T11:01:00.554Z,1.1
2023-04-13T11:02:04.183Z,1.1
2023-04-13T11:03:00.660Z,1.1
2023-04-13T11:04:06.060Z,0.9
2023-04-13T11:05:00.629Z,0.9
2023-04-13T11:06:00.592Z,0.9
2023-04-13T11:07:00.541Z,0.9
2023-04-13T11:08:00.543Z,0.9
2023-04-13T11:09:00.689Z,0.9
2023-04-13T11:10:06.677Z,0.9
2023-04-13T11:11:00.552Z,0.9
2023-04-13T11:12:00.514Z,0.9
2023-04-13T11:13:00.498Z,0.9
2023-04-13T11:14:00.678Z,0.6
2023-04-13T11:15:00.608Z,0.6
2023-04-13T11:16:01.146Z,0.6
2023-04-13T11:17:00.968Z,0.6
2023-04-13T11:18:00.562Z,0.6
2023-04-13T11:19:02.225Z,0.6
2023-04-13T11:20:00.555Z,0.6
2023-04-13T11:21:00.588Z,0.6
2023-04-13T11:22:00.518Z,0.6
2023-04-13T11:23:01.052Z,0.6
2023-04-13T11:24:00.504Z,1.4
2023-04-13T11:25:08.139Z,1.4
2023-04-13T11:26:00.536Z,1.4
2023-04-13T11:27:00.523Z,1.4
2023-04-13T11:28:01.174Z,1.4
2023-04-13T11:29:01.580Z,1.4
2023-04-13T11:30:02.031Z,1.4
2023-04-13T11:31:00.538Z,1.4
2023-04-13T11:32:00.742Z,1.4
2023-04-13T11:33:00.605Z,1.4
2023-04-13T11:34:00.726Z,2.1
2023-04-13T11:35:09.047Z,2.1
2023-04-13T11:36:00.968Z,2.1
2023-04-13T11:37:01.201Z,2.1
2023-04-13T11:38:00.525Z,2.1
2023-04-13T11:39:00.825Z,2.1
2023-04-13T11:40:00.627Z,2.1
2023-04-13T11:41:14.301Z,2.1
2023-04-13T11:42:07.724Z,2.1
2023-04-13T11:43:00.579Z,2.1
2023-04-13T11:44:00.578Z,1.5
2023-04-13T11:45:00.524Z,1.5
2023-04-13T11:46:00.558Z,1.5
2023-04-13T11:47:04.192Z,1.5
2023-04-13T11:48:00.771Z,1.5
2023-04-13T11:49:00.815Z,1.5
2023-04-13T11:50:01.020Z,1.5
2023-04-13T11:51:00.525Z,1.5
2023-04-13T11:52:01.307Z,1.5
2023-04-13T11:53:01.967Z,1.5
2023-04-13T11:54:00.882Z,0.9
2023-04-13T11:55:14.867Z,0.9
2023-04-13T11:56:00.910Z,0.9
2023-04-13T11:57:00.737Z,0.9
2023-04-13T11:58:05.576Z,0.9
2023-04-13T11:59:00.772Z,0.9
2023-04-13T12:00:00.611Z,0.9
2023-04-13T12:01:07.771Z,0.9
2023-04-13T12:02:03.157Z,0.9
2023-04-13T12:03:03.051Z,0.9
2023-04-13T12:04:08.447Z,1.2
2023-04-13T12:05:00.754Z,1.2
2023-04-13T12:06:00.812Z,1.2
2023-04-13T12:07:01.358Z,1.2
2023-04-13T12:08:01.330Z,1.2
2023-04-13T12:09:09.329Z,1.2
2023-04-13T12:10:05.414Z,1.2
2023-04-13T12:12:34.583Z,1.2
2023-04-13T12:13:17.242Z,1.2
2023-04-13T12:14:10.130Z,0.8
2023-04-13T12:16:08.536Z,0.8
2023-04-13T12:17:08.038Z,0.8
2023-04-13T12:18:03.811Z,0.8
2023-04-13T12:19:09.562Z,0.8
2023-04-13T12:20:01.200Z,0.8
2023-04-13T12:21:01.239Z,0.8
2023-04-13T12:22:00.776Z,0.8
2023-04-13T12:23:11.411Z,0.8
2023-04-13T12:24:01.843Z,1.0
2023-04-13T12:25:01.954Z,1.0
2023-04-13T12:26:13.059Z,1.0
2023-04-13T12:28:02.192Z,1.0
2023-04-13T12:29:02.403Z,1.0
2023-04-13T12:30:01.354Z,1.0
2023-04-13T12:31:01.733Z,1.0
2023-04-13T12:32:00.723Z,1.0
2023-04-13T12:33:00.543Z,1.0
2023-04-13T12:34:01.212Z,1.1
2023-04-13T12:35:00.640Z,1.1
2023-04-13T12:36:00.809Z,1.1
2023-04-13T12:37:00.561Z,1.1
2023-04-13T12:38:00.510Z,1.1
2023-04-13T12:39:01.247Z,1.1
2023-04-13T12:40:00.508Z,1.1
2023-04-13T12:41:00.828Z,1.1
2023-04-13T12:42:00.558Z,1.1
2023-04-13T12:43:00.697Z,1.1
2023-04-13T12:44:00.513Z,1.1
2023-04-13T12:45:00.503Z,1.1
2023-04-13T12:46:00.540Z,1.1
2023-04-13T12:47:00.837Z,1.1
2023-04-13T12:48:00.618Z,1.1
2023-04-13T12:49:00.620Z,1.1
2023-04-13T12:50:01.777Z,1.1
2023-04-13T12:51:00.541Z,1.1
2023-04-13T12:52:00.539Z,1.1
2023-04-13T12:53:00.506Z,1.1
2023-04-13T12:54:00.525Z,0.7
2023-04-13T12:55:00.798Z,0.7
2023-04-13T12:56:00.732Z,0.7
2023-04-13T12:57:00.511Z,0.7
2023-04-13T12:58:00.532Z,0.7
2023-04-13T12:59:01.367Z,0.7
2023-04-13T13:00:00.586Z,0.7
2023-04-13T13:01:00.586Z,0.7
2023-04-13T13:02:00.525Z,0.7
2023-04-13T13:03:12.955Z,0.7
2023-04-13T13:04:00.671Z,0.9
2023-04-13T13:05:00.574Z,0.9
2023-04-13T13:06:00.527Z,0.9
2023-04-13T13:07:01.358Z,0.9
2023-04-13T13:08:00.527Z,0.9
2023-04-13T13:09:00.897Z,0.9
2023-04-13T13:10:00.582Z,0.9
2023-04-13T13:11:00.550Z,0.9
2023-04-13T13:12:00.553Z,0.9
2023-04-13T13:13:00.549Z,0.9
2023-04-13T13:14:00.491Z,1.3
2023-04-13T13:15:00.522Z,1.3
2023-04-13T13:16:00.569Z,1.3
2023-04-13T13:17:00.580Z,1.3
2023-04-13T13:18:01.346Z,1.3
2023-04-13T13:19:00.511Z,1.3
2023-04-13T13:20:01.284Z,1.3
2023-04-13T13:21:00.594Z,1.3
2023-04-13T13:22:00.543Z,1.3
2023-04-13T13:23:00.512Z,1.3
2023-04-13T13:24:00.545Z,0.9
2023-04-13T13:25:00.551Z,0.9
2023-04-13T13:26:21.402Z,0.9
2023-04-13T13:27:24.446Z,0.9
2023-04-13T13:29:01.096Z,0.9
2023-04-13T13:30:00.542Z,0.9
2023-04-13T13:31:00.613Z,0.9
2023-04-13T13:32:00.695Z,0.9
2023-04-13T13:33:00.799Z,0.9
2023-04-13T13:34:01.459Z,1.0
2023-04-13T13:35:00.799Z,1.0
2023-04-13T13:36:00.563Z,1.0
2023-04-13T13:37:00.511Z,1.0
2023-04-13T13:38:00.778Z,1.0
2023-04-13T13:39:00.864Z,1.0
2023-04-13T13:40:00.562Z,1.0
2023-04-13T13:41:00.582Z,1.0
2023-04-13T13:42:00.522Z,1.0
2023-04-13T13:43:00.557Z,1.0
2023-04-13T13:44:00.576Z,1.1
2023-04-13T13:45:00.593Z,1.1
2023-04-13T13:46:00.555Z,1.1
2023-04-13T13:47:00.761Z,1.1
2023-04-13T13:48:00.546Z,1.1
2023-04-13T13:49:00.739Z,1.1
2023-04-13T13:50:00.527Z,1.1
2023-04-13T13:51:00.774Z,1.1